sensor_id;sensor_type;location;lat;lon;timestamp;pressure;altitude;pressure_sealevel;temperature;humidity
44926;BME280;30662;51.210;7.656;2022-08-01T00:00:40;96367.53;;;18.02;100.00
44926;BME280;30662;51.210;7.656;2022-08-01T00:03:06;96358.00;;;17.90;100.00
44926;BME280;30662;51.210;7.656;2022-08-01T00:05:31;96357.78;;;17.82;100.00
44926;BME280;30662;51.210;7.656;2022-08-01T00:07:58;96354.84;;;17.83;100.00
44926;BME280;30662;51.210;7.656;2022-08-01T00:10:24;96357.47;;;17.88;100.00
44926;BME280;30662;51.210;7.656;2022-08-01T00:12:50;96363.28;;;17.96;100.00
44926;BME280;30662;51.210;7.656;2022-08-01T00:15:17;96355.88;;;17.87;100.00
44926;BME280;30662;51.210;7.656;2022-08-01T00:17:43;96357.94;;;17.96;100.00
44926;BME280;30662;51.210;7.656;2022-08-01T00:20:11;96360.13;;;17.88;100.00
44926;BME280;30662;51.210;7.656;2022-08-01T00:22:38;96360.88;;;17.99;100.00
44926;BME280;30662;51.210;7.656;2022-08-01T00:25:04;96358.03;;;17.85;100.00
44926;BME280;30662;51.210;7.656;2022-08-01T00:27:31;96360.47;;;17.77;100.00
44926;BME280;30662;51.210;7.656;2022-08-01T00:30:01;96367.16;;;17.69;100.00
44926;BME280;30662;51.210;7.656;2022-08-01T00:32:39;96361.81;;;17.74;100.00
44926;BME280;30662;51.210;7.656;2022-08-01T00:35:05;96360.75;;;17.70;100.00
44926;BME280;30662;51.210;7.656;2022-08-01T00:37:31;96357.28;;;17.70;100.00
44926;BME280;30662;51.210;7.656;2022-08-01T00:39:57;96360.53;;;17.56;100.00
44926;BME280;30662;51.210;7.656;2022-08-01T00:42:23;96363.41;;;17.70;100.00
44926;BME280;30662;51.210;7.656;2022-08-01T00:44:49;96358.63;;;17.72;100.00
44926;BME280;30662;51.210;7.656;2022-08-01T00:47:15;96358.53;;;17.87;100.00
44926;BME280;30662;51.210;7.656;2022-08-01T00:49:41;96363.41;;;17.70;100.00
44926;BME280;30662;51.210;7.656;2022-08-01T00:52:08;96355.75;;;17.53;100.00
44926;BME280;30662;51.210;7.656;2022-08-01T00:54:35;96353.63;;;17.55;100.00
44926;BME280;30662;51.210;7.656;2022-08-01T00:57:02;96357.13;;;17.46;100.00
44926;BME280;30662;51.210;7.656;2022-08-01T00:59:28;96348.78;;;17.62;100.00
44926;BME280;30662;51.210;7.656;2022-08-01T01:01:54;96354.13;;;17.57;100.00
44926;BME280;30662;51.210;7.656;2022-08-01T01:04:21;96349.31;;;17.64;100.00
44926;BME280;30662;51.210;7.656;2022-08-01T01:07:17;96350.91;;;17.71;100.00
44926;BME280;30662;51.210;7.656;2022-08-01T01:15:08;96351.97;;;17.59;100.00
44926;BME280;30662;51.210;7.656;2022-08-01T01:17:45;96349.31;;;17.64;100.00
44926;BME280;30662;51.210;7.656;2022-08-01T01:20:18;96354.63;;;17.64;100.00
44926;BME280;30662;51.210;7.656;2022-08-01T01:22:53;96359.97;;;17.64;100.00
44926;BME280;30662;51.210;7.656;2022-08-01T01:25:32;96357.56;;;17.68;100.00
44926;BME280;30662;51.210;7.656;2022-08-01T01:30:59;96346.66;;;17.59;100.00
44926;BME280;30662;51.210;7.656;2022-08-01T01:33:27;96361.31;;;17.57;100.00
44926;BME280;30662;51.210;7.656;2022-08-01T01:35:59;96349.06;;;17.61;100.00
44926;BME280;30662;51.210;7.656;2022-08-01T01:38:31;96345.84;;;17.59;100.00
44926;BME280;30662;51.210;7.656;2022-08-01T01:40:59;96355.72;;;17.58;100.00
44926;BME280;30662;51.210;7.656;2022-08-01T01:43:29;96351.72;;;17.61;100.00
44926;BME280;30662;51.210;7.656;2022-08-01T01:46:00;96354.09;;;17.68;100.00
44926;BME280;30662;51.210;7.656;2022-08-01T01:48:28;96359.41;;;17.78;100.00
44926;BME280;30662;51.210;7.656;2022-08-01T01:50:54;96363.66;;;17.74;100.00
44926;BME280;30662;51.210;7.656;2022-08-01T01:53:22;96357.56;;;17.68;100.00
44926;BME280;30662;51.210;7.656;2022-08-01T01:55:52;96364.75;;;17.73;100.00
44926;BME280;30662;51.210;7.656;2022-08-01T01:58:19;96360.53;;;17.61;100.00
44926;BME280;30662;51.210;7.656;2022-08-01T02:00:47;96362.97;;;17.53;100.00
44926;BME280;30662;51.210;7.656;2022-08-01T02:03:17;96370.91;;;17.58;100.00
44926;BME280;30662;51.210;7.656;2022-08-01T02:05:44;96359.69;;;17.71;100.00
44926;BME280;30662;51.210;7.656;2022-08-01T02:08:11;96366.38;;;17.58;100.00
44926;BME280;30662;51.210;7.656;2022-08-01T02:10:40;96360.59;;;17.46;100.00
44926;BME280;30662;51.210;7.656;2022-08-01T02:13:07;96361.38;;;17.42;100.00
44926;BME280;30662;51.210;7.656;2022-08-01T02:15:34;96357.91;;;17.46;100.00
44926;BME280;30662;51.210;7.656;2022-08-01T02:18:23;96354.97;;;17.48;100.00
44926;BME280;30662;51.210;7.656;2022-08-01T02:20:52;96360.31;;;17.48;100.00
44926;BME280;30662;51.210;7.656;2022-08-01T02:23:20;96352.53;;;17.56;100.00
44926;BME280;30662;51.210;7.656;2022-08-01T02:25:50;96361.13;;;17.43;100.00
44926;BME280;30662;51.210;7.656;2022-08-01T02:28:43;96366.47;;;17.33;100.00
44926;BME280;30662;51.210;7.656;2022-08-01T02:31:13;96363.78;;;17.43;100.00
44926;BME280;30662;51.210;7.656;2022-08-01T02:33:45;96360.88;;;17.40;100.00
44926;BME280;30662;51.210;7.656;2022-08-01T02:36:12;96361.38;;;17.42;100.00
44926;BME280;30662;51.210;7.656;2022-08-01T02:38:59;96360.31;;;17.37;100.00
44926;BME280;30662;51.210;7.656;2022-08-01T02:41:26;96363.53;;;17.40;100.00
44926;BME280;30662;51.210;7.656;2022-08-01T02:43:59;96357.34;;;17.54;100.00
44926;BME280;30662;51.210;7.656;2022-08-01T02:46:37;96366.72;;;17.47;100.00
44926;BME280;30662;51.210;7.656;2022-08-01T02:49:06;96364.34;;;17.40;100.00
44926;BME280;30662;51.210;7.656;2022-08-01T02:51:34;96368.06;;;17.34;100.00
44926;BME280;30662;51.210;7.656;2022-08-01T02:54:02;96364.63;;;17.28;100.00
44926;BME280;30662;51.210;7.656;2022-08-01T02:56:29;96369.66;;;17.40;100.00
44926;BME280;30662;51.210;7.656;2022-08-01T02:59:05;96368.06;;;17.34;100.00
44926;BME280;30662;51.210;7.656;2022-08-01T03:01:36;96370.75;;;17.34;100.00
44926;BME280;30662;51.210;7.656;2022-08-01T03:04:06;96371.25;;;17.31;100.00
44926;BME280;30662;51.210;7.656;2022-08-01T03:06:34;96371.25;;;17.41;100.00
44926;BME280;30662;51.210;7.656;2022-08-01T03:09:02;96377.09;;;17.43;100.00
44926;BME280;30662;51.210;7.656;2022-08-01T03:11:30;96377.88;;;17.44;100.00
44926;BME280;30662;51.210;7.656;2022-08-01T03:13:59;96371.78;;;17.38;100.00
44926;BME280;30662;51.210;7.656;2022-08-01T03:16:27;96369.44;;;17.31;100.00
44926;BME280;30662;51.210;7.656;2022-08-01T03:18:54;96372.06;;;17.36;100.00
44926;BME280;30662;51.210;7.656;2022-08-01T03:21:23;96366.66;;;17.52;100.00
44926;BME280;30662;51.210;7.656;2022-08-01T03:23:53;96364.06;;;17.42;100.00
44926;BME280;30662;51.210;7.656;2022-08-01T03:26:31;96360.88;;;17.40;100.00
44926;BME280;30662;51.210;7.656;2022-08-01T03:29:02;96364.56;;;17.49;100.00
44926;BME280;30662;51.210;7.656;2022-08-01T03:31:34;96365.13;;;17.41;100.00
44926;BME280;30662;51.210;7.656;2022-08-01T03:34:01;96366.66;;;17.52;100.00
44926;BME280;30662;51.210;7.656;2022-08-01T03:36:32;96365.91;;;17.41;100.00
44926;BME280;30662;51.210;7.656;2022-08-01T03:39:03;96365.91;;;17.46;100.00
44926;BME280;30662;51.210;7.656;2022-08-01T03:41:34;96372.84;;;17.47;100.00
44926;BME280;30662;51.210;7.656;2022-08-01T03:44:10;96369.59;;;17.55;100.00
44926;BME280;30662;51.210;7.656;2022-08-01T03:46:44;96373.06;;;17.51;100.00
44926;BME280;30662;51.210;7.656;2022-08-01T03:49:17;96366.66;;;17.57;100.00
44926;BME280;30662;51.210;7.656;2022-08-01T03:51:47;96371.97;;;17.62;100.00
44926;BME280;30662;51.210;7.656;2022-08-01T03:54:17;96377.59;;;17.50;100.00
44926;BME280;30662;51.210;7.656;2022-08-01T03:56:46;96374.69;;;17.47;100.00
44926;BME280;30662;51.210;7.656;2022-08-01T03:59:16;96378.41;;;17.51;100.00
44926;BME280;30662;51.210;7.656;2022-08-01T04:01:44;96380.03;;;17.42;100.00
44926;BME280;30662;51.210;7.656;2022-08-01T04:04:10;96383.44;;;17.57;100.00
44926;BME280;30662;51.210;7.656;2022-08-01T04:06:38;96369.34;;;17.52;100.00
44926;BME280;30662;51.210;7.656;2022-08-01T04:09:04;96373.03;;;17.61;100.00
44926;BME280;30662;51.210;7.656;2022-08-01T04:11:30;96370.47;;;17.30;100.00
44926;BME280;30662;51.210;7.656;2022-08-01T04:13:56;96373.97;;;17.21;100.00
44926;BME280;30662;51.210;7.656;2022-08-01T04:16:23;96383.59;;;17.17;100.00
44926;BME280;30662;51.210;7.656;2022-08-01T04:18:49;96384.09;;;17.24;100.00
44926;BME280;30662;51.210;7.656;2022-08-01T04:21:18;96378.78;;;17.24;100.00
44926;BME280;30662;51.210;7.656;2022-08-01T04:23:46;96380.59;;;17.23;100.00
44926;BME280;30662;51.210;7.656;2022-08-01T04:26:17;96389.38;;;17.34;100.00
44926;BME280;30662;51.210;7.656;2022-08-01T04:28:44;96385.41;;;17.31;100.00
44926;BME280;30662;51.210;7.656;2022-08-01T04:31:13;96390.19;;;17.34;100.00
44926;BME280;30662;51.210;7.656;2022-08-01T04:33:44;96383.53;;;17.27;100.00
44926;BME280;30662;51.210;7.656;2022-08-01T04:36:12;96393.13;;;17.33;100.00
44926;BME280;30662;51.210;7.656;2022-08-01T04:38:42;96390.22;;;17.19;100.00
44926;BME280;30662;51.210;7.656;2022-08-01T04:41:12;96393.91;;;17.28;100.00
44926;BME280;30662;51.210;7.656;2022-08-01T04:43:39;96393.44;;;17.11;100.00
44926;BME280;30662;51.210;7.656;2022-08-01T04:46:06;96385.16;;;17.18;100.00
44926;BME280;30662;51.210;7.656;2022-08-01T04:48:36;96392.38;;;17.17;100.00
44926;BME280;30662;51.210;7.656;2022-08-01T04:51:03;96392.09;;;17.24;100.00
44926;BME280;30662;51.210;7.656;2022-08-01T04:53:29;96394.97;;;17.32;100.00
44926;BME280;30662;51.210;7.656;2022-08-01T04:55:58;96401.38;;;17.31;100.00
44926;BME280;30662;51.210;7.656;2022-08-01T04:58:24;96396.56;;;17.33;100.00
44926;BME280;30662;51.210;7.656;2022-08-01T05:00:50;96394.16;;;17.42;100.00
44926;BME280;30662;51.210;7.656;2022-08-01T05:03:16;96400.78;;;17.50;100.00
44926;BME280;30662;51.210;7.656;2022-08-01T05:05:42;96403.16;;;17.56;100.00
44926;BME280;30662;51.210;7.656;2022-08-01T05:08:07;96405.59;;;17.53;100.00
44926;BME280;30662;51.210;7.656;2022-08-01T05:10:33;96404.50;;;17.54;100.00
44926;BME280;30662;51.210;7.656;2022-08-01T05:12:59;96397.59;;;17.53;100.00
44926;BME280;30662;51.210;7.656;2022-08-01T05:15:25;96410.91;;;17.43;100.00
44926;BME280;30662;51.210;7.656;2022-08-01T05:17:52;96412.00;;;17.47;100.00
44926;BME280;30662;51.210;7.656;2022-08-01T05:20:18;96420.44;;;17.59;100.00
44926;BME280;30662;51.210;7.656;2022-08-01T05:22:44;96414.59;;;17.57;100.00
44926;BME280;30662;51.210;7.656;2022-08-01T05:25:10;96416.47;;;17.56;100.00
44926;BME280;30662;51.210;7.656;2022-08-01T05:27:38;96414.88;;;17.60;100.00
44926;BME280;30662;51.210;7.656;2022-08-01T05:30:07;96415.41;;;17.52;100.00
44926;BME280;30662;51.210;7.656;2022-08-01T05:32:33;96417.81;;;17.54;100.00
44926;BME280;30662;51.210;7.656;2022-08-01T05:34:59;96424.69;;;17.65;100.00
44926;BME280;30662;51.210;7.656;2022-08-01T05:37:25;96419.41;;;17.60;100.00
44926;BME280;30662;51.210;7.656;2022-08-01T05:39:51;96423.66;;;17.61;100.00
44926;BME280;30662;51.210;7.656;2022-08-01T05:42:17;96426.84;;;17.58;100.00
44926;BME280;30662;51.210;7.656;2022-08-01T05:44:43;96427.91;;;17.62;100.00
44926;BME280;30662;51.210;7.656;2022-08-01T05:47:09;96427.91;;;17.72;100.00
44926;BME280;30662;51.210;7.656;2022-08-01T05:49:34;96427.09;;;17.67;100.00
44926;BME280;30662;51.210;7.656;2022-08-01T05:52:00;96428.97;;;17.71;100.00
44926;BME280;30662;51.210;7.656;2022-08-01T05:54:27;96436.91;;;17.91;100.00
44926;BME280;30662;51.210;7.656;2022-08-01T05:56:53;96436.09;;;17.91;100.00
44926;BME280;30662;51.210;7.656;2022-08-01T05:59:21;96438.53;;;17.82;100.00
44926;BME280;30662;51.210;7.656;2022-08-01T06:01:47;96446.50;;;17.87;100.00
44926;BME280;30662;51.210;7.656;2022-08-01T06:04:13;96448.41;;;17.82;100.00
44926;BME280;30662;51.210;7.656;2022-08-01T06:06:39;96445.69;;;17.97;100.00
44926;BME280;30662;51.210;7.656;2022-08-01T06:09:05;96446.19;;;17.99;100.00
44926;BME280;30662;51.210;7.656;2022-08-01T06:11:30;96449.34;;;18.06;100.00
44926;BME280;30662;51.210;7.656;2022-08-01T06:13:56;96447.75;;;18.05;100.00
44926;BME280;30662;51.210;7.656;2022-08-01T06:16:22;96449.56;;;18.20;100.00
44926;BME280;30662;51.210;7.656;2022-08-01T06:18:48;96442.66;;;18.14;100.00
44926;BME280;30662;51.210;7.656;2022-08-01T06:21:18;96441.28;;;18.16;100.00
44926;BME280;30662;51.210;7.656;2022-08-01T06:23:44;96441.84;;;18.13;100.00
44926;BME280;30662;51.210;7.656;2022-08-01T06:26:09;96445.22;;;18.29;100.00
44926;BME280;30662;51.210;7.656;2022-08-01T06:28:36;96447.91;;;18.29;100.00
44926;BME280;30662;51.210;7.656;2022-08-01T06:31:02;96444.44;;;18.29;100.00
44926;BME280;30662;51.210;7.656;2022-08-01T06:33:28;96453.50;;;18.33;100.00
44926;BME280;30662;51.210;7.656;2022-08-01T06:35:54;96445.16;;;18.39;100.00
44926;BME280;30662;51.210;7.656;2022-08-01T06:38:20;96451.53;;;18.49;100.00
44926;BME280;30662;51.210;7.656;2022-08-01T06:40:46;96452.53;;;18.58;100.00
44926;BME280;30662;51.210;7.656;2022-08-01T06:43:11;96446.47;;;18.47;100.00
44926;BME280;30662;51.210;7.656;2022-08-01T06:45:39;96448.84;;;18.49;100.00
44926;BME280;30662;51.210;7.656;2022-08-01T06:48:05;96451.66;;;18.23;100.00
44926;BME280;30662;51.210;7.656;2022-08-01T06:50:31;96454.03;;;18.30;100.00
44926;BME280;30662;51.210;7.656;2022-08-01T06:52:57;96446.13;;;18.54;100.00
44926;BME280;30662;51.210;7.656;2022-08-01T06:55:23;96446.59;;;18.71;100.00
44926;BME280;30662;51.210;7.656;2022-08-01T06:57:51;96451.06;;;18.76;100.00
44926;BME280;30662;51.210;7.656;2022-08-01T07:00:19;96451.13;;;18.65;100.00
44926;BME280;30662;51.210;7.656;2022-08-01T07:02:51;96455.78;;;18.50;100.00
44926;BME280;30662;51.210;7.656;2022-08-01T07:05:18;96457.66;;;18.49;100.00
44926;BME280;30662;51.210;7.656;2022-08-01T07:07:44;96460.22;;;18.64;100.00
44926;BME280;30662;51.210;7.656;2022-08-01T07:10:11;96454.28;;;18.78;100.00
44926;BME280;30662;51.210;7.656;2022-08-01T07:12:37;96452.88;;;18.85;100.00
44926;BME280;30662;51.210;7.656;2022-08-01T07:15:05;96455.97;;;18.58;100.00
44926;BME280;30662;51.210;7.656;2022-08-01T07:17:31;96452.53;;;18.58;100.00
44926;BME280;30662;51.210;7.656;2022-08-01T07:19:57;96455.00;;;18.44;100.00
44926;BME280;30662;51.210;7.656;2022-08-01T07:22:23;96451.53;;;18.49;100.00
44926;BME280;30662;51.210;7.656;2022-08-01T07:24:49;96450.81;;;18.33;100.00
44926;BME280;30662;51.210;7.656;2022-08-01T07:27:20;96457.44;;;18.40;100.00
44926;BME280;30662;51.210;7.656;2022-08-01T07:29:51;96447.75;;;18.55;100.00
44926;BME280;30662;51.210;7.656;2022-08-01T07:32:18;96457.78;;;18.73;100.00
44926;BME280;30662;51.210;7.656;2022-08-01T07:34:44;96449.53;;;19.04;100.00
44926;BME280;30662;51.210;7.656;2022-08-01T07:37:10;96453.56;;;19.01;100.00
44926;BME280;30662;51.210;7.656;2022-08-01T07:39:36;96448.03;;;18.92;100.00
44926;BME280;30662;51.210;7.656;2022-08-01T07:42:02;96460.03;;;18.90;100.00
44926;BME280;30662;51.210;7.656;2022-08-01T07:44:34;96463.56;;;18.85;100.00
44926;BME280;30662;51.210;7.656;2022-08-01T07:47:00;96464.00;;;18.97;100.00
44926;BME280;30662;51.210;7.656;2022-08-01T07:49:26;96472.88;;;18.88;100.00
44926;BME280;30662;51.210;7.656;2022-08-01T07:51:52;96481.16;;;18.91;100.00
44926;BME280;30662;51.210;7.656;2022-08-01T07:54:38;96473.19;;;18.81;100.00
44926;BME280;30662;51.210;7.656;2022-08-01T07:57:04;96478.50;;;18.86;100.00
44926;BME280;30662;51.210;7.656;2022-08-01T07:59:30;96476.13;;;18.85;100.00
44926;BME280;30662;51.210;7.656;2022-08-01T08:01:57;96469.94;;;18.89;100.00
44926;BME280;30662;51.210;7.656;2022-08-01T08:04:23;96470.09;;;19.03;100.00
44926;BME280;30662;51.210;7.656;2022-08-01T08:06:49;96471.78;;;19.23;100.00
44926;BME280;30662;51.210;7.656;2022-08-01T08:09:15;96478.19;;;19.27;100.00
44926;BME280;30662;51.210;7.656;2022-08-01T08:11:45;96489.19;;;19.49;100.00
44926;BME280;30662;51.210;7.656;2022-08-01T08:14:14;96487.53;;;19.53;100.00
44926;BME280;30662;51.210;7.656;2022-08-01T08:16:40;96485.97;;;19.47;100.00
44926;BME280;30662;51.210;7.656;2022-08-01T08:19:06;96483.09;;;19.44;100.00
44926;BME280;30662;51.210;7.656;2022-08-01T08:21:31;96488.44;;;19.44;100.00
44926;BME280;30662;51.210;7.656;2022-08-01T08:23:57;96490.03;;;19.45;100.00
44926;BME280;30662;51.210;7.656;2022-08-01T08:26:42;96489.22;;;19.44;100.00
44926;BME280;30662;51.210;7.656;2022-08-01T08:29:08;96496.88;;;19.27;100.00
44926;BME280;30662;51.210;7.656;2022-08-01T08:31:34;96498.06;;;19.11;100.00
44926;BME280;30662;51.210;7.656;2022-08-01T08:34:18;96493.75;;;18.81;100.00
44926;BME280;30662;51.210;7.656;2022-08-01T08:36:44;96495.78;;;18.99;100.00
44926;BME280;30662;51.210;7.656;2022-08-01T08:39:13;96488.06;;;18.92;100.00
44926;BME280;30662;51.210;7.656;2022-08-01T08:41:39;96492.56;;;18.97;100.00
44926;BME280;30662;51.210;7.656;2022-08-01T08:44:06;96496.19;;;19.11;100.00
44926;BME280;30662;51.210;7.656;2022-08-01T08:46:54;96498.31;;;19.14;100.00
44926;BME280;30662;51.210;7.656;2022-08-01T08:49:24;96498.03;;;19.45;100.00
44926;BME280;30662;51.210;7.656;2022-08-01T08:51:52;96485.34;;;19.61;100.00
44926;BME280;30662;51.210;7.656;2022-08-01T08:54:21;96501.69;;;19.54;100.00
44926;BME280;30662;51.210;7.656;2022-08-01T08:56:58;96506.78;;;19.55;100.00
44926;BME280;30662;51.210;7.656;2022-08-01T08:59:25;96506.69;;;19.66;100.00
44926;BME280;30662;51.210;7.656;2022-08-01T09:01:51;96504.63;;;19.58;100.00
44926;BME280;30662;51.210;7.656;2022-08-01T09:04:20;96505.09;;;19.65;100.00
44926;BME280;30662;51.210;7.656;2022-08-01T09:06:52;96513.41;;;19.87;99.71
44926;BME280;30662;51.210;7.656;2022-08-01T09:09:18;96509.81;;;19.97;97.57
44926;BME280;30662;51.210;7.656;2022-08-01T09:11:44;96511.88;;;19.81;100.00
44926;BME280;30662;51.210;7.656;2022-08-01T09:14:24;96520.06;;;19.90;98.90
44926;BME280;30662;51.210;7.656;2022-08-01T09:17:01;96511.81;;;19.86;100.00
44926;BME280;30662;51.210;7.656;2022-08-01T09:19:38;96509.06;;;19.91;99.39
44926;BME280;30662;51.210;7.656;2022-08-01T09:22:09;96518.75;;;20.11;99.58
44926;BME280;30662;51.210;7.656;2022-08-01T09:24:36;96521.03;;;19.75;95.33
44926;BME280;30662;51.210;7.656;2022-08-01T09:27:22;96521.72;;;19.86;96.84
44926;BME280;30662;51.210;7.656;2022-08-01T09:29:52;96526.16;;;19.95;96.79
44926;BME280;30662;51.210;7.656;2022-08-01T09:32:27;96529.41;;;20.16;94.50
44926;BME280;30662;51.210;7.656;2022-08-01T09:35:27;96531.63;;;20.09;94.06
44926;BME280;30662;51.210;7.656;2022-08-01T09:38:22;96528.97;;;20.52;90.94
44926;BME280;30662;51.210;7.656;2022-08-01T09:40:57;96544.84;;;20.67;89.19
44926;BME280;30662;51.210;7.656;2022-08-01T09:43:27;96528.97;;;20.89;88.01
44926;BME280;30662;51.210;7.656;2022-08-01T09:45:56;96533.47;;;20.75;88.03
44926;BME280;30662;51.210;7.656;2022-08-01T09:48:24;96534.84;;;21.10;88.34
44926;BME280;30662;51.210;7.656;2022-08-01T09:50:56;96536.72;;;21.10;87.83
44926;BME280;30662;51.210;7.656;2022-08-01T09:53:47;96535.78;;;21.01;85.47
44926;BME280;30662;51.210;7.656;2022-08-01T09:56:19;96541.09;;;20.87;85.98
44926;BME280;30662;51.210;7.656;2022-08-01T09:58:56;96543.00;;;21.00;84.36
44926;BME280;30662;51.210;7.656;2022-08-01T10:01:27;96542.81;;;20.78;83.94
44926;BME280;30662;51.210;7.656;2022-08-01T10:04:33;96540.06;;;21.02;82.88
44926;BME280;30662;51.210;7.656;2022-08-01T10:07:07;96537.31;;;20.69;87.67
44926;BME280;30662;51.210;7.656;2022-08-01T10:09:35;96547.66;;;20.95;88.09
44926;BME280;30662;51.210;7.656;2022-08-01T10:12:07;96543.00;;;21.00;86.19
44926;BME280;30662;51.210;7.656;2022-08-01T10:14:34;96539.06;;;21.49;84.93
44926;BME280;30662;51.210;7.656;2022-08-01T10:17:01;96545.25;;;21.63;81.59
44926;BME280;30662;51.210;7.656;2022-08-01T16:05:09;96551.78;;;24.64;59.52
44926;BME280;30662;51.210;7.656;2022-08-01T16:07:35;96557.63;;;24.57;59.54
44926;BME280;30662;51.210;7.656;2022-08-01T16:10:21;96553.25;;;24.30;60.20
44926;BME280;30662;51.210;7.656;2022-08-01T16:12:47;96549.94;;;23.93;61.84
44926;BME280;30662;51.210;7.656;2022-08-01T16:15:13;96556.69;;;23.60;63.22
44926;BME280;30662;51.210;7.656;2022-08-01T16:17:39;96559.16;;;23.70;62.99
44926;BME280;30662;51.210;7.656;2022-08-01T16:20:10;96554.31;;;23.58;64.19
44926;BME280;30662;51.210;7.656;2022-08-01T16:22:36;96558.66;;;23.46;64.21
44926;BME280;30662;51.210;7.656;2022-08-01T16:25:03;96554.06;;;23.46;65.05
44926;BME280;30662;51.210;7.656;2022-08-01T16:27:30;96548.00;;;23.85;64.13
44926;BME280;30662;51.210;7.656;2022-08-01T16:29:56;96552.84;;;24.06;62.72
44926;BME280;30662;51.210;7.656;2022-08-01T16:32:22;96565.75;;;23.86;62.15
44926;BME280;30662;51.210;7.656;2022-08-01T16:35:04;96561.50;;;23.94;62.81
44926;BME280;30662;51.210;7.656;2022-08-01T16:37:31;96568.38;;;23.78;62.82
44926;BME280;30662;51.210;7.656;2022-08-01T16:39:56;96571.28;;;23.90;62.71
44926;BME280;30662;51.210;7.656;2022-08-01T16:42:22;96563.44;;;24.02;62.49
44926;BME280;30662;51.210;7.656;2022-08-01T16:44:53;96551.28;;;24.05;61.59
44926;BME280;30662;51.210;7.656;2022-08-01T16:47:18;96562.97;;;23.69;62.81
44926;BME280;30662;51.210;7.656;2022-08-01T16:49:44;96558.09;;;23.57;63.42
44926;BME280;30662;51.210;7.656;2022-08-01T16:52:10;96569.00;;;23.52;64.16
44926;BME280;30662;51.210;7.656;2022-08-01T16:54:36;96565.41;;;23.34;64.48
44926;BME280;30662;51.210;7.656;2022-08-01T16:57:02;96572.03;;;23.15;65.34
44926;BME280;30662;51.210;7.656;2022-08-01T16:59:34;96573.09;;;23.05;65.93
44926;BME280;30662;51.210;7.656;2022-08-01T17:02:07;96572.13;;;22.87;67.28
44926;BME280;30662;51.210;7.656;2022-08-01T17:04:33;96572.13;;;22.73;67.87
44926;BME280;30662;51.210;7.656;2022-08-01T17:06:59;96567.69;;;22.55;68.90
44926;BME280;30662;51.210;7.656;2022-08-01T17:09:25;96570.94;;;22.66;68.85
44926;BME280;30662;51.210;7.656;2022-08-01T17:11:51;96567.06;;;22.72;68.73
44926;BME280;30662;51.210;7.656;2022-08-01T17:14:17;96565.84;;;22.92;67.85
44926;BME280;30662;51.210;7.656;2022-08-01T17:16:43;96575.88;;;23.00;67.49
44926;BME280;30662;51.210;7.656;2022-08-01T17:19:09;96571.91;;;22.97;67.80
44926;BME280;30662;51.210;7.656;2022-08-01T17:21:35;96573.56;;;23.07;67.68
44926;BME280;30662;51.210;7.656;2022-08-01T17:24:06;96576.94;;;23.13;66.87
44926;BME280;30662;51.210;7.656;2022-08-01T17:26:32;96581.44;;;23.03;68.10
44926;BME280;30662;51.210;7.656;2022-08-01T17:28:58;96580.22;;;23.32;66.60
44926;BME280;30662;51.210;7.656;2022-08-01T17:31:24;96578.34;;;23.55;65.89
44926;BME280;30662;51.210;7.656;2022-08-01T17:33:50;96568.59;;;23.90;63.68
44926;BME280;30662;51.210;7.656;2022-08-01T17:36:20;96569.09;;;23.92;62.88
44926;BME280;30662;51.210;7.656;2022-08-01T17:38:46;96560.22;;;23.91;63.02
44926;BME280;30662;51.210;7.656;2022-08-01T17:41:12;96563.13;;;24.04;62.44
44926;BME280;30662;51.210;7.656;2022-08-01T17:43:38;96564.28;;;23.80;61.96
44926;BME280;30662;51.210;7.656;2022-08-01T17:46:04;96560.34;;;23.86;62.26
44926;BME280;30662;51.210;7.656;2022-08-01T17:48:30;96551.94;;;23.79;62.58
44926;BME280;30662;51.210;7.656;2022-08-01T17:50:56;96560.31;;;23.55;63.76
44926;BME280;30662;51.210;7.656;2022-08-01T17:53:22;96558.44;;;23.56;63.54
44926;BME280;30662;51.210;7.656;2022-08-01T17:55:49;96565.88;;;23.59;63.96
44926;BME280;30662;51.210;7.656;2022-08-01T17:58:25;96567.59;;;23.55;63.86
44926;BME280;30662;51.210;7.656;2022-08-01T18:01:12;96562.41;;;23.36;65.32
44926;BME280;30662;51.210;7.656;2022-08-01T18:03:38;96566.56;;;23.20;65.36
44926;BME280;30662;51.210;7.656;2022-08-01T18:06:08;96576.63;;;23.14;66.58
44926;BME280;30662;51.210;7.656;2022-08-01T18:08:34;96565.09;;;23.14;65.70
44926;BME280;30662;51.210;7.656;2022-08-01T18:11:00;96573.03;;;23.19;65.60
44926;BME280;30662;51.210;7.656;2022-08-01T18:13:26;96567.50;;;23.01;65.97
44926;BME280;30662;51.210;7.656;2022-08-01T18:15:54;96571.00;;;22.88;66.88
44926;BME280;30662;51.210;7.656;2022-08-01T18:18:21;96574.00;;;22.73;67.48
44926;BME280;30662;51.210;7.656;2022-08-01T18:21:01;96571.44;;;22.68;67.85
44926;BME280;30662;51.210;7.656;2022-08-01T18:23:27;96571.56;;;22.49;69.47
44926;BME280;30662;51.210;7.656;2022-08-01T18:25:53;96575.53;;;22.38;70.02
44926;BME280;30662;51.210;7.656;2022-08-01T18:28:19;96579.91;;;22.61;69.13
44926;BME280;30662;51.210;7.656;2022-08-01T18:30:59;96570.47;;;22.36;69.92
44926;BME280;30662;51.210;7.656;2022-08-01T18:33:25;96565.19;;;22.03;72.33
44926;BME280;30662;51.210;7.656;2022-08-01T18:35:51;96573.78;;;21.73;73.96
44926;BME280;30662;51.210;7.656;2022-08-01T18:38:19;96579.13;;;21.59;75.59
44926;BME280;30662;51.210;7.656;2022-08-01T18:40:45;96584.31;;;21.51;75.83
44926;BME280;30662;51.210;7.656;2022-08-01T18:43:11;96579.94;;;21.41;76.41
44926;BME280;30662;51.210;7.656;2022-08-01T18:45:37;96583.09;;;21.43;77.17
44926;BME280;30662;51.210;7.656;2022-08-01T18:48:08;96583.53;;;21.50;77.03
44926;BME280;30662;51.210;7.656;2022-08-01T18:50:34;96585.09;;;21.37;77.65
44926;BME280;30662;51.210;7.656;2022-08-01T18:53:00;96582.31;;;21.24;77.78
44926;BME280;30662;51.210;7.656;2022-08-01T18:55:26;96587.13;;;21.08;78.89